Time;durP1;ratioP1;P1;durP2;ratioP2;P2;SDS_P1;SDS_P2;PMS_P1;PMS_P2;Temp;Humidity;BMP_temperature;BMP_pressure;BME280_temperature;BME280_humidity;BME280_pressure;Samples;Min_cycle;Max_cycle;Signal;HPM_P1;HPM_P2
2022/11/29 00:01:32;;;;;;;28.65;14.27;;;;;;;7.04;77.59;100990.88;5039916;28;20044;-67
2022/11/29 00:04:01;;;;;;;29.55;14.82;;;;;;;7.23;77.00;100985.88;5035402;28;20045;-67
2022/11/29 00:06:30;;;;;;;31.13;15.25;;;;;;;7.18;76.46;100995.59;5029150;28;20044;-67
2022/11/29 00:08:58;;;;;;;29.50;14.63;;;;;;;7.43;75.95;100991.25;5020690;28;20053;-67
2022/11/29 00:14:13;;;;;;;29.27;14.07;;;;;;;7.44;75.59;100999.94;5019858;28;20491;-67
2022/11/29 00:16:40;;;;;;;28.83;14.43;;;;;;;7.41;75.74;100998.28;5029619;28;20041;-67
2022/11/29 00:19:08;;;;;;;32.03;14.82;;;;;;;7.13;76.57;100987.09;5037390;28;20501;-67
2022/11/29 00:21:35;;;;;;;29.70;14.85;;;;;;;7.36;76.14;100997.59;5021468;28;20045;-67
2022/11/29 00:24:02;;;;;;;29.13;15.10;;;;;;;7.30;76.24;100995.19;5038572;28;20045;-67
2022/11/29 00:26:28;;;;;;;30.15;15.52;;;;;;;7.37;76.05;100994.09;5086542;27;20572;-67
2022/11/29 00:28:55;;;;;;;27.73;14.05;;;;;;;7.26;76.14;100988.38;5044747;27;20489;-67
2022/11/29 00:31:23;;;;;;;30.70;15.30;;;;;;;7.10;76.65;100984.56;5063509;28;20055;-67
2022/11/29 00:33:51;;;;;;;29.38;15.35;;;;;;;7.04;76.95;100988.25;5054848;28;20044;-67
2022/11/29 00:36:20;;;;;;;24.83;14.65;;;;;;;7.10;76.46;100981.97;5040309;28;20040;-67
2022/11/29 00:38:46;;;;;;;27.85;14.07;;;;;;;7.17;76.48;100986.06;5049289;28;20410;-67
2022/11/29 00:41:13;;;;;;;34.15;14.27;;;;;;;7.14;76.56;100984.44;5049438;28;20049;-67
2022/11/29 00:43:40;;;;;;;27.83;14.63;;;;;;;6.99;76.95;100987.53;5039137;28;20049;-67
2022/11/29 00:46:07;;;;;;;30.83;14.18;;;;;;;6.80;77.19;100989.91;5048137;28;20048;-67
2022/11/29 00:48:34;;;;;;;33.30;14.63;;;;;;;6.92;77.72;100990.41;5064126;28;20420;-67
2022/11/29 00:51:01;;;;;;;27.90;14.30;;;;;;;6.96;77.71;100989.41;5038846;28;20052;-67
2022/11/29 00:53:29;;;;;;;27.35;13.68;;;;;;;7.01;77.56;100993.56;5048003;28;20052;-67
2022/11/29 00:55:55;;;;;;;28.30;14.15;;;;;;;7.08;76.96;100991.63;5048866;28;20060;-67
2022/11/29 00:58:22;;;;;;;27.17;14.48;;;;;;;6.90;77.43;100985.25;5038762;28;20051;-67
2022/11/29 01:00:49;;;;;;;33.05;14.90;;;;;;;6.85;77.62;100988.00;5047636;28;20047;-67
2022/11/29 01:03:16;;;;;;;25.83;13.90;;;;;;;6.53;78.93;100984.72;5049222;28;20040;-67
2022/11/29 01:05:43;;;;;;;27.02;14.05;;;;;;;6.49;79.36;100983.97;5039686;28;20067;-67
2022/11/29 01:08:10;;;;;;;28.88;14.57;;;;;;;6.31;80.31;100977.56;5048213;28;20040;-67
2022/11/29 01:10:38;;;;;;;28.98;14.35;;;;;;;6.73;79.37;100975.34;5049225;28;20052;-67
2022/11/29 01:13:05;;;;;;;26.15;14.70;;;;;;;6.60;79.48;100976.66;5039257;28;20044;-67
2022/11/29 01:15:32;;;;;;;31.83;15.23;;;;;;;6.63;79.70;100983.53;5047649;28;20056;-67
2022/11/29 01:17:59;;;;;;;30.35;14.25;;;;;;;6.63;79.34;100981.78;5054826;28;20040;-67
2022/11/29 01:20:26;;;;;;;26.17;13.15;;;;;;;6.28;80.84;100984.63;5045218;28;20051;-67
2022/11/29 01:22:52;;;;;;;29.70;14.60;;;;;;;6.11;82.11;100985.13;5050201;28;20048;-67
2022/11/29 01:25:19;;;;;;;26.92;13.90;;;;;;;6.42;81.53;100981.59;5048419;28;20044;-67
2022/11/29 01:27:47;;;;;;;27.80;14.60;;;;;;;6.42;81.30;100982.44;5038724;28;20048;-67
2022/11/29 01:30:14;;;;;;;27.02;14.02;;;;;;;6.52;80.67;100991.69;5047815;28;20045;-67
2022/11/29 01:32:40;;;;;;;29.27;15.23;;;;;;;6.48;81.01;100991.81;5047947;28;20049;-67
2022/11/29 01:35:08;;;;;;;29.58;15.07;;;;;;;6.37;81.42;100989.53;5038731;28;20051;-67
2022/11/29 01:37:34;;;;;;;29.35;15.02;;;;;;;6.11;82.49;100990.31;5047163;28;20060;-67
2022/11/29 01:40:01;;;;;;;27.15;14.15;;;;;;;6.33;81.90;100993.13;5048419;28;20048;-66
2022/11/29 01:42:27;;;;;;;32.13;15.02;;;;;;;6.06;82.66;100992.19;5037889;28;20051;-66
2022/11/29 01:45:07;;;;;;;34.55;15.73;;;;;;;6.29;82.49;100992.38;5046783;28;20056;-66
2022/11/29 01:47:39;;;;;;;30.70;15.30;;;;;;;6.30;81.82;100995.84;5039363;28;20102;-66
2022/11/29 01:50:08;;;;;;;31.48;15.48;;;;;;;6.32;81.68;100997.47;5047825;28;20044;-66
2022/11/29 01:52:35;;;;;;;23.98;14.00;;;;;;;6.21;81.62;100996.94;5047595;28;20060;-66
2022/11/29 01:55:05;;;;;;;32.50;16.02;;;;;;;6.08;82.29;100994.75;5038088;28;20552;-66
2022/11/29 01:57:35;;;;;;;30.17;14.55;;;;;;;5.73;84.12;100995.72;5046899;28;20041;-67
2022/11/29 02:00:08;;;;;;;31.90;14.68;;;;;;;5.96;83.43;100997.72;5047853;28;20045;-66
2022/11/29 02:02:38;;;;;;;26.63;13.75;;;;;;;5.76;84.07;100990.47;5045261;28;20056;-66
2022/11/29 02:05:05;;;;;;;28.65;14.57;;;;;;;5.63;84.95;100992.53;5046835;28;20052;-66
2022/11/29 02:07:32;;;;;;;32.35;14.90;;;;;;;6.08;83.46;100994.75;5037792;28;20489;-67
2022/11/29 02:09:58;;;;;;;31.75;15.85;;;;;;;6.10;82.93;100995.56;5048393;28;20049;-67
2022/11/29 02:12:35;;;;;;;30.52;14.85;;;;;;;6.31;82.21;101001.00;5047955;28;20447;-67
2022/11/29 02:15:18;;;;;;;27.50;14.75;;;;;;;6.40;81.73;101001.59;5039939;28;20451;-66
2022/11/29 02:17:58;;;;;;;30.00;15.43;;;;;;;6.39;81.89;100997.31;5047315;28;20044;-66
2022/11/29 02:21:02;;;;;;;30.73;15.40;;;;;;;6.08;83.07;100999.97;5034602;28;20048;-67
2022/11/29 02:24:08;;;;;;;31.40;15.88;;;;;;;5.88;83.95;100996.19;5036106;28;20040;-67
2022/11/29 02:26:59;;;;;;;35.35;15.50;;;;;;;5.76;85.11;101001.72;5039523;28;20395;-67
2022/11/29 02:30:02;;;;;;;30.13;15.10;;;;;;;6.26;82.70;101002.03;5047372;28;20049;-66
2022/11/29 02:32:54;;;;;;;30.98;13.95;;;;;;;6.43;81.82;100996.31;5028315;28;20052;-67
2022/11/29 02:35:37;;;;;;;32.80;14.97;;;;;;;6.72;80.93;101002.34;5033615;28;20484;-67
2022/11/29 02:38:24;;;;;;;34.88;15.43;;;;;;;6.52;81.42;100999.50;5046384;28;20064;-67
2022/11/29 02:41:13;;;;;;;28.15;13.90;;;;;;;6.72;81.28;100999.72;5064901;28;20054;-67
2022/11/29 02:43:58;;;;;;;28.67;14.95;;;;;;;6.78;80.22;100999.53;5045714;28;20056;-66
2022/11/29 02:46:46;;;;;;;30.25;14.65;;;;;;;7.18;78.84;101000.81;5038167;28;20500;-67
2022/11/29 02:49:24;;;;;;;28.15;14.68;;;;;;;6.93;79.46;101005.16;5048457;28;20059;-67
2022/11/29 02:51:57;;;;;;;33.45;16.42;;;;;;;7.11;78.85;101002.78;5048570;28;20385;-67
2022/11/29 02:54:29;;;;;;;32.80;15.30;;;;;;;7.30;78.44;101005.63;5047136;28;20048;-67
2022/11/29 02:57:01;;;;;;;28.20;15.30;;;;;;;7.44;77.99;101003.41;5049004;28;20047;-67
2022/11/29 02:59:40;;;;;;;26.90;14.27;;;;;;;7.37;77.57;101007.13;5065788;28;20044;-67
2022/11/29 03:02:18;;;;;;;27.08;14.98;;;;;;;7.49;77.40;101001.50;5032071;28;20412;-67
2022/11/29 03:04:51;;;;;;;31.65;14.60;;;;;;;7.40;77.64;101009.63;5047148;28;20047;-67
2022/11/29 03:07:25;;;;;;;29.80;14.52;;;;;;;7.43;77.66;101006.91;5047326;28;20059;-67
2022/11/29 03:10:00;;;;;;;30.48;15.15;;;;;;;7.75;76.58;101008.41;5059252;28;20047;-67
2022/11/29 03:12:35;;;;;;;32.33;14.60;;;;;;;7.59;76.90;101023.75;5077466;28;20517;-67
2022/11/29 03:15:12;;;;;;;28.02;14.75;;;;;;;7.64;76.61;101019.22;5061991;28;20053;-67
2022/11/29 03:17:51;;;;;;;28.95;14.32;;;;;;;7.26;77.63;101017.06;5064672;28;20047;-67
2022/11/29 03:20:29;;;;;;;30.52;15.48;;;;;;;7.19;78.83;101029.47;5055509;28;20303;-67
2022/11/29 03:23:13;;;;;;;33.35;15.80;;;;;;;7.47;77.34;101025.91;5065885;28;20048;-67
2022/11/29 03:25:44;;;;;;;29.65;14.77;;;;;;;7.48;77.61;101038.06;5054540;28;20052;-67
2022/11/29 03:28:15;;;;;;;29.00;15.07;;;;;;;7.58;76.88;101034.22;5053644;28;20484;-67
2022/11/29 03:30:49;;;;;;;28.52;14.85;;;;;;;7.42;77.81;101041.75;5036644;28;20474;-67
2022/11/29 03:33:25;;;;;;;27.15;14.15;;;;;;;7.45;77.42;101040.78;5057059;28;20068;-67
2022/11/29 03:36:00;;;;;;;28.92;15.45;;;;;;;7.54;77.71;101043.91;5025189;28;20119;-67
2022/11/29 03:38:32;;;;;;;30.63;14.80;;;;;;;7.36;77.86;101039.31;5056833;28;20051;-67
2022/11/29 03:41:08;;;;;;;30.95;15.10;;;;;;;7.10;79.38;101032.38;5060303;28;20074;-67
2022/11/29 03:43:41;;;;;;;30.80;14.35;;;;;;;6.84;80.53;101041.03;5056882;28;20048;-67
2022/11/29 03:46:12;;;;;;;31.25;15.05;;;;;;;7.18;79.16;101035.59;5051482;28;20052;-66
2022/11/29 03:48:44;;;;;;;28.67;14.57;;;;;;;7.26;79.05;101048.38;5059618;28;21518;-67
2022/11/29 03:51:17;;;;;;;32.05;14.95;;;;;;;7.46;78.19;101043.34;5051155;28;20056;-67
2022/11/29 03:53:51;;;;;;;29.52;14.73;;;;;;;7.38;78.49;101045.34;5052662;28;20650;-67
2022/11/29 03:56:28;;;;;;;33.47;15.70;;;;;;;7.47;77.95;101045.03;5061865;28;20515;-67
2022/11/29 03:59:03;;;;;;;29.10;14.20;;;;;;;7.39;78.59;101043.59;5039517;28;20052;-67
2022/11/29 04:02:03;;;;;;;28.83;15.02;;;;;;;7.13;79.68;101044.47;5054784;28;20044;-66
2022/11/29 04:05:06;;;;;;;26.88;14.50;;;;;;;6.98;80.08;101042.34;5036903;28;20071;-67
2022/11/29 04:07:55;;;;;;;31.33;15.35;;;;;;;6.92;80.44;101046.00;5039287;28;20064;-67
2022/11/29 04:10:40;;;;;;;27.15;14.45;;;;;;;7.17;79.89;101041.69;5049817;28;20051;-66
2022/11/29 04:13:45;;;;;;;28.73;15.32;;;;;;;7.52;78.60;101045.75;5049642;28;20489;-66
2022/11/29 04:16:31;;;;;;;33.80;14.90;;;;;;;7.33;78.81;101047.25;5034588;28;20052;-66
2022/11/29 04:19:34;;;;;;;33.22;14.82;;;;;;;7.52;77.94;101045.75;5040963;28;20051;-66
2022/11/29 04:22:42;;;;;;;28.47;14.97;;;;;;;7.32;78.41;101048.16;5050002;28;20036;-66
2022/11/29 04:25:47;;;;;;;31.77;14.63;;;;;;;7.22;78.82;101057.19;5026597;28;20298;-67
2022/11/29 04:28:35;;;;;;;28.13;14.80;;;;;;;7.23;78.42;101049.34;5053900;28;20067;-67
2022/11/29 04:31:08;;;;;;;32.80;14.88;;;;;;;7.20;78.93;101051.19;5047403;28;20056;-66
2022/11/29 04:33:57;;;;;;;32.80;15.65;;;;;;;7.20;78.53;101051.19;5058363;28;20040;-66
2022/11/29 04:36:48;;;;;;;30.98;14.88;;;;;;;7.02;79.92;101049.19;5064701;28;20328;-66
2022/11/29 04:39:36;;;;;;;27.65;14.45;;;;;;;7.20;79.22;101054.66;5054694;28;20053;-66
2022/11/29 04:42:22;;;;;;;31.48;15.43;;;;;;;7.52;77.64;101058.78;5057395;28;20384;-66
2022/11/29 04:45:21;;;;;;;31.55;14.25;;;;;;;7.11;79.13;101054.09;5057363;28;20064;-66
2022/11/29 04:47:59;;;;;;;28.00;14.52;;;;;;;7.30;78.79;101068.22;5056711;28;20040;-67
2022/11/29 04:50:47;;;;;;;29.67;14.35;;;;;;;7.25;79.51;101064.91;5041718;28;20051;-67
2022/11/29 04:53:33;;;;;;;30.88;15.30;;;;;;;7.41;78.58;101068.72;5059881;28;20071;-66
2022/11/29 04:56:10;;;;;;;30.25;14.70;;;;;;;7.27;79.37;101070.94;5052078;28;20043;-66
2022/11/29 04:58:43;;;;;;;28.25;14.20;;;;;;;7.04;80.13;101070.84;5045372;28;20401;-66
2022/11/29 05:01:23;;;;;;;29.70;14.23;;;;;;;7.22;79.81;101076.31;5032775;28;20512;-66
2022/11/29 05:03:57;;;;;;;30.30;14.98;;;;;;;7.14;79.79;101082.66;5057395;28;20050;-66
2022/11/29 05:06:29;;;;;;;31.35;15.02;;;;;;;7.46;79.14;101085.09;5050777;28;20544;-66
2022/11/29 05:09:02;;;;;;;28.98;14.57;;;;;;;7.13;80.24;101086.19;5050141;28;20044;-66
2022/11/29 05:11:46;;;;;;;31.15;14.85;;;;;;;6.90;82.03;101083.44;5039634;28;20041;-66
2022/11/29 05:14:23;;;;;;;33.45;15.70;;;;;;;7.19;80.72;101093.81;5073408;28;20058;-66
2022/11/29 05:17:00;;;;;;;33.42;16.75;;;;;;;7.44;80.24;101097.31;5072998;27;20399;-66
2022/11/29 05:19:55;;;;;;;32.28;16.17;;;;;;;7.45;79.59;101101.66;5047799;28;20497;-66
2022/11/29 05:22:33;;;;;;;31.00;15.43;;;;;;;7.43;80.08;101100.00;5041783;28;20056;-66
2022/11/29 05:25:14;;;;;;;34.13;15.40;;;;;;;7.34;80.22;101095.94;5038790;28;20051;-67
2022/11/29 05:27:47;;;;;;;31.85;15.68;;;;;;;7.47;80.44;101102.44;5039854;28;20041;-67
2022/11/29 05:30:15;;;;;;;30.98;15.52;;;;;;;7.58;79.77;101100.31;5033660;28;20048;-66
2022/11/29 05:32:56;;;;;;;31.38;15.38;;;;;;;7.34;80.72;101104.63;5047975;28;20043;-67
2022/11/29 05:35:34;;;;;;;32.00;16.00;;;;;;;7.19;81.43;101105.09;5047971;28;20103;-66
2022/11/29 05:38:13;;;;;;;33.13;16.80;;;;;;;7.37;80.98;101110.63;5034134;28;20045;-66
2022/11/29 05:40:53;;;;;;;31.13;16.08;;;;;;;7.13;82.13;101107.06;5038752;28;20493;-66
2022/11/29 05:43:45;;;;;;;30.13;15.40;;;;;;;7.05;82.95;101119.47;5021663;28;20052;-66
2022/11/29 05:46:19;;;;;;;39.33;18.30;;;;;;;6.96;83.95;101111.94;5053116;28;20454;-66
2022/11/29 05:48:56;;;;;;;37.55;18.05;;;;;;;7.38;82.19;101117.56;5037855;28;20647;-66
2022/11/29 05:51:33;;;;;;;39.05;20.08;;;;;;;7.59;80.97;101122.91;5015649;28;20048;-66
2022/11/29 05:54:11;;;;;;;36.67;20.38;;;;;;;7.71;81.00;101125.13;5036451;28;20044;-67
2022/11/29 05:56:47;;;;;;;47.88;23.90;;;;;;;7.71;80.37;101132.09;5018375;28;20080;-66
2022/11/29 05:59:20;;;;;;;42.50;23.55;;;;;;;7.57;81.22;101129.09;5026756;28;20044;-66
2022/11/29 06:01:55;;;;;;;41.33;22.60;;;;;;;7.61;81.02;101126.31;5018160;28;20084;-66
2022/11/29 06:04:28;;;;;;;47.90;24.35;;;;;;;7.67;80.85;101139.19;5031690;28;20055;-66
2022/11/29 06:07:02;;;;;;;48.70;28.00;;;;;;;7.75;80.32;101139.78;5044924;28;20048;-66
2022/11/29 06:09:35;;;;;;;50.42;24.67;;;;;;;7.75;80.43;101134.56;5047762;28;20048;-66
2022/11/29 06:12:04;;;;;;;;;;;;;;;7.81;80.22;101144.78;5048035;28;20501;-66
2022/11/29 06:15:06;;;;;;;47.10;25.73;;;;;;;7.77;79.89;101143.16;5038067;28;19921;-67
2022/11/29 06:17:47;;;;;;;40.50;22.33;;;;;;;7.69;80.66;101142.56;5036079;28;20110;-66
2022/11/29 06:20:42;;;;;;;44.20;22.50;;;;;;;7.75;80.84;101147.59;5033829;28;20037;-66
2022/11/29 06:23:22;;;;;;;46.13;23.55;;;;;;;7.64;80.60;101152.34;5055324;28;20051;-66
2022/11/29 06:26:09;;;;;;;38.50;19.73;;;;;;;7.52;81.67;101151.88;5057797;28;20049;-66
2022/11/29 06:28:52;;;;;;;41.53;19.65;;;;;;;7.59;81.94;101155.97;5050706;28;20052;-66
2022/11/29 06:31:23;;;;;;;46.30;23.17;;;;;;;7.66;81.34;101150.50;5038250;28;20040;-66
2022/11/29 06:33:56;;;;;;;47.50;21.90;;;;;;;7.74;80.78;101168.53;5050082;28;20040;-66
2022/11/29 06:36:28;;;;;;;43.17;22.65;;;;;;;7.63;81.21;101161.06;5046310;28;20388;-66
2022/11/29 06:38:55;;;;;;;51.47;20.50;;;;;;;7.73;81.25;101170.28;5020891;28;20049;-66
2022/11/29 06:41:24;;;;;;;42.08;20.63;;;;;;;7.57;81.36;101166.50;5021643;28;20440;-66
2022/11/29 06:43:51;;;;;;;41.75;20.65;;;;;;;7.62;81.61;101171.53;5018316;28;20060;-66
2022/11/29 06:46:26;;;;;;;47.53;22.13;;;;;;;7.52;82.20;101172.75;5036913;28;20033;-66
2022/11/29 06:49:02;;;;;;;42.55;19.73;;;;;;;7.62;81.91;101169.78;5034799;28;20052;-66
2022/11/29 06:51:39;;;;;;;37.88;17.55;;;;;;;7.67;81.54;101172.25;5035185;28;20044;-66
2022/11/29 06:54:16;;;;;;;39.65;18.90;;;;;;;7.78;80.85;101172.75;5039406;28;20044;-66
2022/11/29 06:56:51;;;;;;;46.58;19.85;;;;;;;7.62;81.61;101174.13;5053939;28;20102;-66
2022/11/29 06:59:34;;;;;;;38.63;18.42;;;;;;;7.72;81.32;101180.78;5049672;28;20507;-66
2022/11/29 07:02:11;;;;;;;39.13;17.75;;;;;;;7.29;82.89;101170.84;5063625;28;20040;-66
2022/11/29 07:04:54;;;;;;;48.65;18.83;;;;;;;7.24;83.48;101172.78;5031328;28;20057;-66
2022/11/29 07:07:23;;;;;;;42.75;19.88;;;;;;;7.13;84.25;101172.25;5046330;28;20048;-66
2022/11/29 07:09:53;;;;;;;50.47;21.40;;;;;;;7.40;83.06;101183.56;5055466;28;20078;-66
2022/11/29 07:12:20;;;;;;;40.78;19.05;;;;;;;7.35;83.56;101178.50;5056564;28;20587;-66
2022/11/29 07:14:47;;;;;;;40.92;19.23;;;;;;;7.27;83.74;101181.34;5050334;28;20048;-66
2022/11/29 07:17:21;;;;;;;44.58;18.65;;;;;;;7.15;84.23;101189.53;5054906;28;20047;-66
2022/11/29 07:20:01;;;;;;;45.30;19.08;;;;;;;7.35;83.53;101186.34;5051777;28;20063;-66
2022/11/29 07:22:43;;;;;;;40.83;19.60;;;;;;;7.19;84.43;101195.53;5056150;28;20056;-66
2022/11/29 07:25:21;;;;;;;43.40;19.02;;;;;;;7.58;83.42;101188.19;5055439;28;20163;-66
2022/11/29 07:27:57;;;;;;;33.00;17.77;;;;;;;7.52;83.12;101184.03;5057776;28;20051;-66
2022/11/29 07:30:31;;;;;;;40.95;19.48;;;;;;;7.65;82.82;101192.34;5058123;28;20052;-66
2022/11/29 07:33:07;;;;;;;42.47;18.52;;;;;;;7.65;82.77;101193.16;5050759;28;20047;-66
2022/11/29 07:35:43;;;;;;;45.38;19.48;;;;;;;7.71;82.63;101195.59;5050024;28;20131;-66
2022/11/29 07:38:22;;;;;;;42.33;20.25;;;;;;;7.82;82.50;101201.31;5061717;28;20040;-66
2022/11/29 07:40:55;;;;;;;38.50;18.05;;;;;;;7.88;81.76;101210.69;5065332;28;20052;-66
2022/11/29 07:43:34;;;;;;;39.92;19.42;;;;;;;7.76;81.86;101209.31;5050197;28;20044;-66
2022/11/29 07:46:01;;;;;;;87.80;38.70;;;;;;;7.72;82.23;101201.66;5066275;28;20053;-66
2022/11/29 07:48:27;;;;;;;65.00;28.13;;;;;;;7.63;82.38;101213.25;5048792;28;20052;-66
2022/11/29 07:50:54;;;;;;;51.75;25.92;;;;;;;7.63;82.62;101212.41;5050732;28;20420;-66
2022/11/29 07:53:23;;;;;;;41.38;19.85;;;;;;;7.65;82.16;101206.22;5066678;28;20053;-66
2022/11/29 07:55:50;;;;;;;40.67;17.92;;;;;;;7.01;85.82;101214.31;5071006;28;20059;-66
2022/11/29 07:58:18;;;;;;;39.55;18.63;;;;;;;7.30;84.76;101220.38;5051434;28;20047;-66
2022/11/29 08:00:44;;;;;;;41.30;20.23;;;;;;;7.37;84.78;101217.56;5052987;28;20072;-66
2022/11/29 08:03:11;;;;;;;38.88;19.50;;;;;;;7.40;84.20;101210.50;5043109;28;20049;-66
2022/11/29 08:05:38;;;;;;;39.92;19.88;;;;;;;7.62;83.83;101213.28;5033511;28;20044;-66
2022/11/29 08:08:06;;;;;;;47.08;19.52;;;;;;;7.37;84.13;101213.22;5050153;28;20071;-66
2022/11/29 08:10:34;;;;;;;38.90;17.75;;;;;;;7.27;85.07;101220.47;5056405;28;20048;-66
2022/11/29 08:13:00;;;;;;;38.60;17.60;;;;;;;7.32;84.80;101228.13;5049311;28;20054;-66
2022/11/29 08:15:27;;;;;;;41.75;19.20;;;;;;;7.30;84.58;101224.75;5049867;28;20044;-66
2022/11/29 08:17:54;;;;;;;40.53;17.50;;;;;;;7.12;86.16;101220.94;5049662;28;20048;-66
2022/11/29 08:20:20;;;;;;;41.58;18.02;;;;;;;7.26;86.31;101226.59;5056205;28;20044;-66
2022/11/29 08:22:53;;;;;;;37.80;18.20;;;;;;;7.19;86.04;101222.47;5070126;28;20454;-66
2022/11/29 08:25:20;;;;;;;36.00;17.98;;;;;;;7.27;85.42;101230.06;5052059;28;20045;-65
2022/11/29 08:27:48;;;;;;;46.53;20.92;;;;;;;7.49;85.11;101231.09;5024468;28;20536;-65
2022/11/29 08:30:17;;;;;;;47.63;20.38;;;;;;;7.37;85.12;101231.47;5021314;28;20049;-66
2022/11/29 08:32:44;;;;;;;43.70;18.63;;;;;;;7.40;85.13;101233.97;5044531;28;20043;-66
2022/11/29 08:35:10;;;;;;;52.00;19.25;;;;;;;7.46;85.61;101228.59;5033607;28;20040;-66
2022/11/29 08:37:36;;;;;;;38.88;18.02;;;;;;;7.28;85.96;101226.53;5032380;28;20057;-66
2022/11/29 08:40:03;;;;;;;45.20;17.70;;;;;;;7.46;85.87;101238.19;5056153;28;20083;-66
2022/11/29 08:42:30;;;;;;;38.47;18.63;;;;;;;7.42;85.15;101232.19;5027861;28;20040;-66
2022/11/29 08:44:58;;;;;;;47.15;20.90;;;;;;;7.23;87.14;101234.50;5032541;28;20052;-66
2022/11/29 08:47:36;;;;;;;44.97;22.15;;;;;;;7.23;86.82;101233.66;5029779;28;20045;-65
2022/11/29 08:50:05;;;;;;;42.53;19.00;;;;;;;7.31;86.34;101229.06;5025033;28;20075;-65
2022/11/29 08:55:18;;;;;;;43.00;18.98;;;;;;;7.40;86.20;101244.41;5023105;28;20151;-65
2022/11/29 08:57:45;;;;;;;43.90;19.13;;;;;;;7.29;86.94;101246.50;5027945;28;20045;-65
2022/11/29 09:00:15;;;;;;;45.33;18.77;;;;;;;7.11;87.51;101249.66;5029167;28;20045;-65
2022/11/29 09:02:41;;;;;;;55.22;21.85;;;;;;;7.46;87.07;101256.44;5028801;28;20158;-65
2022/11/29 09:05:09;;;;;;;45.47;20.70;;;;;;;7.60;85.89;101251.66;5028986;28;20056;-65
2022/11/29 09:07:36;;;;;;;54.92;21.92;;;;;;;7.77;85.28;101259.78;5019913;28;20069;-65
2022/11/29 09:10:06;;;;;;;48.08;23.05;;;;;;;7.72;85.33;101259.91;5034619;28;20052;-66
2022/11/29 09:12:33;;;;;;;39.25;18.60;;;;;;;7.87;84.22;101262.97;5030443;28;20052;-66
2022/11/29 09:15:00;;;;;;;43.38;20.02;;;;;;;7.75;85.02;101264.22;5019131;28;20131;-66
2022/11/29 09:17:28;;;;;;;64.30;28.02;;;;;;;7.89;84.79;101267.22;5029446;28;20447;-66
2022/11/29 09:19:54;;;;;;;52.22;22.48;;;;;;;7.91;84.75;101265.41;5028552;28;20045;-66
2022/11/29 09:22:21;;;;;;;57.85;23.50;;;;;;;8.10;84.16;101276.97;5019964;28;20048;-66
2022/11/29 09:24:47;;;;;;;51.35;22.35;;;;;;;8.12;83.65;101279.53;5032938;28;20154;-66
2022/11/29 09:27:14;;;;;;;52.53;21.33;;;;;;;7.57;85.84;101273.47;5040902;28;20076;-66
2022/11/29 09:29:40;;;;;;;48.65;22.77;;;;;;;7.83;85.38;101278.72;5019001;28;20041;-66
2022/11/29 09:32:06;;;;;;;48.08;24.88;;;;;;;8.11;84.08;101281.31;5028640;28;20048;-66
2022/11/29 09:34:34;;;;;;;41.15;19.60;;;;;;;7.94;83.63;101280.16;5027959;28;20048;-66
2022/11/29 09:37:01;;;;;;;45.10;17.98;;;;;;;7.50;86.03;101284.97;5017450;28;20045;-66
2022/11/29 09:39:27;;;;;;;50.53;21.83;;;;;;;7.61;85.69;101282.91;5028260;28;20055;-66
2022/11/29 09:42:09;;;;;;;45.33;20.40;;;;;;;7.79;85.51;101290.19;5038519;28;20060;-66
2022/11/29 09:44:49;;;;;;;43.85;19.52;;;;;;;7.88;84.61;101289.00;5018700;28;20061;-66
2022/11/29 09:47:30;;;;;;;41.53;18.98;;;;;;;7.54;85.63;101286.59;5027734;28;20614;-66
2022/11/29 09:50:11;;;;;;;50.80;20.85;;;;;;;7.45;86.36;101294.72;5028080;28;20059;-66
2022/11/29 09:52:45;;;;;;;48.72;21.98;;;;;;;7.55;86.30;101293.53;5028061;28;20056;-66
2022/11/29 09:55:31;;;;;;;34.75;17.45;;;;;;;7.13;88.23;101292.22;5027999;28;20053;-66
2022/11/29 09:58:02;;;;;;;49.70;21.58;;;;;;;7.66;86.73;101301.88;5028040;28;20076;-66
2022/11/29 10:00:32;;;;;;;76.38;29.65;;;;;;;7.89;85.77;101289.88;5027637;28;20047;-66
2022/11/29 10:03:03;;;;;;;68.53;28.70;;;;;;;7.99;85.88;101289.53;5026879;28;20511;-66
2022/11/29 10:05:37;;;;;;;54.95;23.83;;;;;;;7.91;85.53;101288.09;5018178;28;20048;-66
2022/11/29 10:08:09;;;;;;;56.60;21.73;;;;;;;7.66;86.67;101295.81;5027680;28;20056;-66
2022/11/29 10:10:40;;;;;;;48.30;18.63;;;;;;;7.52;88.16;101292.78;5029621;28;20059;-66
2022/11/29 10:13:16;;;;;;;48.90;22.95;;;;;;;7.88;86.59;101301.22;5027732;28;20135;-65
2022/11/29 10:15:45;;;;;;;44.42;22.77;;;;;;;8.04;85.93;101292.00;5030252;28;20050;-65
2022/11/29 10:18:18;;;;;;;46.05;20.65;;;;;;;7.85;86.75;101291.72;5022383;28;20048;-65
2022/11/29 10:20:49;;;;;;;40.25;19.38;;;;;;;7.96;86.25;101294.84;5026726;28;20044;-66
2022/11/29 10:23:22;;;;;;;41.17;17.75;;;;;;;8.05;86.18;101294.56;5017279;28;20048;-66
2022/11/29 10:25:51;;;;;;;44.92;20.33;;;;;;;8.16;85.43;101296.84;5040988;28;20444;-66
2022/11/29 10:28:20;;;;;;;50.63;20.35;;;;;;;8.24;85.11;101297.44;5054077;27;20040;-66
2022/11/29 10:30:48;;;;;;;46.63;20.60;;;;;;;8.23;84.82;101293.97;5037043;28;20587;-66
2022/11/29 10:33:19;;;;;;;46.28;21.38;;;;;;;8.34;84.09;101296.25;5046413;28;20044;-66
2022/11/29 10:35:50;;;;;;;50.97;22.93;;;;;;;8.57;83.92;101304.13;5047872;28;20666;-66
2022/11/29 10:38:17;;;;;;;49.75;20.92;;;;;;;8.55;83.09;101298.13;5047343;28;20306;-66
2022/11/29 10:40:47;;;;;;;52.80;22.65;;;;;;;8.65;83.17;101303.88;5045606;28;20492;-66
2022/11/29 10:43:14;;;;;;;62.40;26.33;;;;;;;8.64;83.14;101307.41;5037920;28;20578;-66
2022/11/29 10:45:48;;;;;;;62.35;27.75;;;;;;;8.56;83.04;101305.06;5055614;28;20043;-66
2022/11/29 10:48:17;;;;;;;47.83;21.77;;;;;;;8.39;83.79;101304.78;5062715;28;20479;-66
2022/11/29 10:50:47;;;;;;;58.08;20.30;;;;;;;8.00;85.29;101306.06;5050513;28;20419;-66
2022/11/29 10:53:17;;;;;;;64.70;26.00;;;;;;;8.06;85.56;101311.06;5065970;28;20420;-66
2022/11/29 10:55:48;;;;;;;57.55;21.65;;;;;;;8.19;85.93;101305.41;5062617;28;20469;-66
2022/11/29 10:58:19;;;;;;;75.13;34.80;;;;;;;8.26;85.35;101313.91;5051973;28;20056;-66
2022/11/29 11:00:54;;;;;;;65.32;30.33;;;;;;;8.51;84.63;101306.13;5051440;28;20040;-66
2022/11/29 11:03:28;;;;;;;62.28;27.08;;;;;;;8.41;84.87;101305.59;5041330;28;20510;-66
2022/11/29 11:06:00;;;;;;;57.13;22.23;;;;;;;8.52;84.07;101308.69;5050638;28;20052;-66
2022/11/29 11:08:31;;;;;;;54.47;20.23;;;;;;;7.88;87.15;101317.75;5041304;28;20051;-66
2022/11/29 11:10:58;;;;;;;48.33;20.50;;;;;;;8.05;87.31;101305.03;5046433;28;20045;-66
2022/11/29 11:13:26;;;;;;;52.65;20.35;;;;;;;8.14;86.41;101307.31;5035034;28;20045;-65
2022/11/29 11:15:59;;;;;;;57.92;20.10;;;;;;;8.50;84.69;101310.47;5049954;28;20049;-66
2022/11/29 11:18:28;;;;;;;51.85;20.23;;;;;;;8.21;85.72;101310.56;5030728;28;20041;-66
2022/11/29 11:20:57;;;;;;;49.30;19.17;;;;;;;7.88;87.09;101322.09;5054292;28;20070;-66
2022/11/29 11:23:26;;;;;;;49.40;18.90;;;;;;;7.97;86.92;101311.38;5045659;28;20452;-65
2022/11/29 11:26:00;;;;;;;46.33;18.75;;;;;;;7.52;89.59;101319.72;5049089;28;20700;-65
2022/11/29 11:28:29;;;;;;;64.80;23.08;;;;;;;8.05;88.31;101314.59;5041308;28;20160;-65
2022/11/29 11:30:58;;;;;;;53.95;20.65;;;;;;;8.32;87.16;101313.72;5058033;28;20062;-65
2022/11/29 11:33:27;;;;;;;59.17;22.17;;;;;;;8.48;86.23;101312.31;5059372;28;20611;-65
2022/11/29 11:36:07;;;;;;;52.90;19.77;;;;;;;8.54;85.34;101312.09;5041096;28;20600;-66
2022/11/29 11:38:34;;;;;;;51.05;18.70;;;;;;;8.62;85.50;101319.66;5056181;28;20058;-66
2022/11/29 11:41:15;;;;;;;49.92;18.55;;;;;;;8.69;84.99;101324.63;5043913;28;20045;-65
2022/11/29 11:43:42;;;;;;;51.03;19.85;;;;;;;8.62;85.20;101323.16;5051848;28;20043;-65
2022/11/29 11:46:08;;;;;;;48.70;19.45;;;;;;;8.59;85.33;101322.41;5054792;28;20458;-66
2022/11/29 11:48:35;;;;;;;86.47;34.30;;;;;;;8.62;85.37;101323.16;5056745;28;20064;-66
2022/11/29 11:51:02;;;;;;;65.35;25.27;;;;;;;8.74;85.04;101327.97;5054899;28;20041;-66
2022/11/29 11:53:32;;;;;;;73.30;26.80;;;;;;;8.89;84.81;101321.34;5050184;28;20416;-66